sensor_id;sensor_type;location;lat;lon;timestamp;P1;durP1;ratioP1;P2;durP2;ratioP2
11498;SDS011;5806;48.748;9.278;2023-08-06T00:00:05;7.87;;;3.60;;
11498;SDS011;5806;48.748;9.278;2023-08-06T00:02:34;7.63;;;4.30;;
11498;SDS011;5806;48.748;9.278;2023-08-06T00:05:01;5.63;;;3.40;;
11498;SDS011;5806;48.748;9.278;2023-08-06T00:07:29;4.80;;;3.23;;
11498;SDS011;5806;48.748;9.278;2023-08-06T00:09:57;5.23;;;3.60;;
11498;SDS011;5806;48.748;9.278;2023-08-06T00:12:24;4.97;;;3.37;;
11498;SDS011;5806;48.748;9.278;2023-08-06T00:14:52;5.10;;;3.60;;
11498;SDS011;5806;48.748;9.278;2023-08-06T00:17:20;7.50;;;3.77;;
11498;SDS011;5806;48.748;9.278;2023-08-06T00:19:47;3.40;;;3.07;;
11498;SDS011;5806;48.748;9.278;2023-08-06T00:22:15;4.03;;;3.30;;
11498;SDS011;5806;48.748;9.278;2023-08-06T00:24:42;5.40;;;3.80;;
11498;SDS011;5806;48.748;9.278;2023-08-06T00:27:10;5.83;;;3.57;;
11498;SDS011;5806;48.748;9.278;2023-08-06T00:29:37;4.40;;;3.07;;
11498;SDS011;5806;48.748;9.278;2023-08-06T00:32:05;5.23;;;3.63;;
11498;SDS011;5806;48.748;9.278;2023-08-06T00:34:32;8.60;;;3.70;;
11498;SDS011;5806;48.748;9.278;2023-08-06T00:37:00;5.77;;;3.90;;
11498;SDS011;5806;48.748;9.278;2023-08-06T00:39:28;5.00;;;4.23;;
11498;SDS011;5806;48.748;9.278;2023-08-06T00:41:55;5.83;;;3.67;;
11498;SDS011;5806;48.748;9.278;2023-08-06T00:44:23;4.50;;;3.57;;
11498;SDS011;5806;48.748;9.278;2023-08-06T00:46:51;5.13;;;4.03;;
11498;SDS011;5806;48.748;9.278;2023-08-06T00:49:19;7.47;;;3.30;;
11498;SDS011;5806;48.748;9.278;2023-08-06T00:51:47;4.87;;;3.17;;
11498;SDS011;5806;48.748;9.278;2023-08-06T00:54:14;6.70;;;3.57;;
11498;SDS011;5806;48.748;9.278;2023-08-06T00:56:42;4.37;;;3.43;;
11498;SDS011;5806;48.748;9.278;2023-08-06T00:59:10;4.83;;;3.60;;
11498;SDS011;5806;48.748;9.278;2023-08-06T01:01:38;5.27;;;3.40;;
11498;SDS011;5806;48.748;9.278;2023-08-06T01:04:06;4.93;;;3.40;;
11498;SDS011;5806;48.748;9.278;2023-08-06T01:06:37;4.80;;;3.47;;
11498;SDS011;5806;48.748;9.278;2023-08-06T01:09:12;6.03;;;3.80;;
11498;SDS011;5806;48.748;9.278;2023-08-06T01:11:38;3.87;;;3.07;;
11498;SDS011;5806;48.748;9.278;2023-08-06T01:14:28;5.33;;;3.83;;
11498;SDS011;5806;48.748;9.278;2023-08-06T01:16:57;3.90;;;3.43;;
11498;SDS011;5806;48.748;9.278;2023-08-06T01:19:26;7.93;;;3.83;;
11498;SDS011;5806;48.748;9.278;2023-08-06T01:21:53;6.17;;;3.70;;
11498;SDS011;5806;48.748;9.278;2023-08-06T01:24:21;9.27;;;3.73;;
11498;SDS011;5806;48.748;9.278;2023-08-06T01:26:51;5.83;;;3.90;;
11498;SDS011;5806;48.748;9.278;2023-08-06T01:29:23;6.60;;;3.73;;
11498;SDS011;5806;48.748;9.278;2023-08-06T01:31:50;7.10;;;3.67;;
11498;SDS011;5806;48.748;9.278;2023-08-06T01:34:20;4.53;;;3.80;;
11498;SDS011;5806;48.748;9.278;2023-08-06T01:36:50;7.53;;;3.93;;
11498;SDS011;5806;48.748;9.278;2023-08-06T01:39:18;7.03;;;4.03;;
11498;SDS011;5806;48.748;9.278;2023-08-06T01:41:48;5.03;;;3.83;;
11498;SDS011;5806;48.748;9.278;2023-08-06T01:44:15;5.17;;;3.60;;
11498;SDS011;5806;48.748;9.278;2023-08-06T01:46:43;7.73;;;3.90;;
11498;SDS011;5806;48.748;9.278;2023-08-06T01:49:10;7.67;;;3.87;;
11498;SDS011;5806;48.748;9.278;2023-08-06T01:51:38;5.30;;;4.23;;
11498;SDS011;5806;48.748;9.278;2023-08-06T01:54:05;6.37;;;4.33;;
11498;SDS011;5806;48.748;9.278;2023-08-06T01:56:33;5.33;;;3.63;;
11498;SDS011;5806;48.748;9.278;2023-08-06T01:59:00;8.27;;;4.20;;
11498;SDS011;5806;48.748;9.278;2023-08-06T02:01:28;7.77;;;4.07;;
11498;SDS011;5806;48.748;9.278;2023-08-06T02:03:56;4.10;;;3.73;;
11498;SDS011;5806;48.748;9.278;2023-08-06T02:06:23;3.77;;;3.17;;
11498;SDS011;5806;48.748;9.278;2023-08-06T02:08:51;5.17;;;3.50;;
11498;SDS011;5806;48.748;9.278;2023-08-06T02:11:18;6.90;;;3.53;;
11498;SDS011;5806;48.748;9.278;2023-08-06T02:13:46;3.87;;;3.43;;
11498;SDS011;5806;48.748;9.278;2023-08-06T02:16:13;4.03;;;3.30;;
11498;SDS011;5806;48.748;9.278;2023-08-06T02:18:41;5.57;;;3.70;;
11498;SDS011;5806;48.748;9.278;2023-08-06T02:21:08;3.97;;;3.57;;
11498;SDS011;5806;48.748;9.278;2023-08-06T02:23:36;6.47;;;3.73;;
11498;SDS011;5806;48.748;9.278;2023-08-06T02:26:04;4.90;;;3.43;;
11498;SDS011;5806;48.748;9.278;2023-08-06T02:28:32;8.07;;;3.70;;
11498;SDS011;5806;48.748;9.278;2023-08-06T02:30:59;6.97;;;3.43;;
11498;SDS011;5806;48.748;9.278;2023-08-06T02:33:27;4.30;;;3.13;;
11498;SDS011;5806;48.748;9.278;2023-08-06T02:36:00;5.07;;;3.10;;
11498;SDS011;5806;48.748;9.278;2023-08-06T02:38:32;4.13;;;2.93;;
11498;SDS011;5806;48.748;9.278;2023-08-06T02:41:04;4.00;;;3.00;;
11498;SDS011;5806;48.748;9.278;2023-08-06T02:43:29;4.80;;;3.40;;
11498;SDS011;5806;48.748;9.278;2023-08-06T02:45:57;7.67;;;3.63;;
11498;SDS011;5806;48.748;9.278;2023-08-06T02:48:25;3.70;;;3.10;;
11498;SDS011;5806;48.748;9.278;2023-08-06T02:50:56;4.20;;;3.43;;
11498;SDS011;5806;48.748;9.278;2023-08-06T02:53:25;4.30;;;2.80;;
11498;SDS011;5806;48.748;9.278;2023-08-06T02:55:53;3.30;;;3.00;;
11498;SDS011;5806;48.748;9.278;2023-08-06T02:58:21;6.63;;;3.40;;
11498;SDS011;5806;48.748;9.278;2023-08-06T03:03:31;4.47;;;2.80;;
11498;SDS011;5806;48.748;9.278;2023-08-06T03:05:58;7.97;;;3.37;;
11498;SDS011;5806;48.748;9.278;2023-08-06T03:08:26;3.67;;;3.23;;
11498;SDS011;5806;48.748;9.278;2023-08-06T03:10:54;6.93;;;3.70;;
11498;SDS011;5806;48.748;9.278;2023-08-06T03:13:21;6.43;;;3.90;;
11498;SDS011;5806;48.748;9.278;2023-08-06T03:15:58;5.23;;;3.50;;
11498;SDS011;5806;48.748;9.278;2023-08-06T03:18:22;6.00;;;3.33;;
11498;SDS011;5806;48.748;9.278;2023-08-06T03:20:51;5.50;;;3.30;;
11498;SDS011;5806;48.748;9.278;2023-08-06T03:23:20;4.07;;;3.53;;
11498;SDS011;5806;48.748;9.278;2023-08-06T03:25:47;4.50;;;3.43;;
11498;SDS011;5806;48.748;9.278;2023-08-06T03:28:15;5.77;;;3.67;;
11498;SDS011;5806;48.748;9.278;2023-08-06T03:30:42;6.97;;;3.40;;
11498;SDS011;5806;48.748;9.278;2023-08-06T03:33:10;5.83;;;3.60;;
11498;SDS011;5806;48.748;9.278;2023-08-06T03:35:37;6.50;;;3.70;;
11498;SDS011;5806;48.748;9.278;2023-08-06T03:38:05;4.83;;;3.60;;
11498;SDS011;5806;48.748;9.278;2023-08-06T03:40:34;6.17;;;3.67;;
11498;SDS011;5806;48.748;9.278;2023-08-06T03:43:02;5.63;;;3.57;;
11498;SDS011;5806;48.748;9.278;2023-08-06T03:45:30;5.00;;;3.27;;
11498;SDS011;5806;48.748;9.278;2023-08-06T03:47:57;4.73;;;3.40;;
11498;SDS011;5806;48.748;9.278;2023-08-06T03:50:25;8.63;;;3.73;;
11498;SDS011;5806;48.748;9.278;2023-08-06T03:52:52;9.10;;;3.37;;
11498;SDS011;5806;48.748;9.278;2023-08-06T03:55:19;4.57;;;3.47;;
11498;SDS011;5806;48.748;9.278;2023-08-06T03:57:47;5.97;;;3.57;;
11498;SDS011;5806;48.748;9.278;2023-08-06T04:00:15;4.03;;;3.20;;
11498;SDS011;5806;48.748;9.278;2023-08-06T04:02:43;4.97;;;3.50;;
11498;SDS011;5806;48.748;9.278;2023-08-06T04:05:10;3.90;;;3.10;;
11498;SDS011;5806;48.748;9.278;2023-08-06T04:07:38;4.77;;;3.17;;
11498;SDS011;5806;48.748;9.278;2023-08-06T04:10:06;6.33;;;3.20;;
11498;SDS011;5806;48.748;9.278;2023-08-06T04:12:34;5.73;;;2.93;;
11498;SDS011;5806;48.748;9.278;2023-08-06T04:15:05;4.60;;;3.23;;
11498;SDS011;5806;48.748;9.278;2023-08-06T04:17:33;4.90;;;3.17;;
11498;SDS011;5806;48.748;9.278;2023-08-06T04:20:00;6.67;;;3.03;;
11498;SDS011;5806;48.748;9.278;2023-08-06T04:22:28;4.03;;;3.10;;
11498;SDS011;5806;48.748;9.278;2023-08-06T04:24:55;5.07;;;3.30;;
11498;SDS011;5806;48.748;9.278;2023-08-06T04:27:23;5.00;;;3.00;;
11498;SDS011;5806;48.748;9.278;2023-08-06T04:29:50;3.70;;;2.97;;
11498;SDS011;5806;48.748;9.278;2023-08-06T04:32:18;4.13;;;3.07;;
11498;SDS011;5806;48.748;9.278;2023-08-06T04:34:45;5.40;;;3.40;;
11498;SDS011;5806;48.748;9.278;2023-08-06T04:37:13;5.00;;;3.03;;
11498;SDS011;5806;48.748;9.278;2023-08-06T04:39:41;5.83;;;2.67;;
11498;SDS011;5806;48.748;9.278;2023-08-06T04:42:08;9.07;;;3.33;;
11498;SDS011;5806;48.748;9.278;2023-08-06T04:44:36;8.33;;;3.30;;
11498;SDS011;5806;48.748;9.278;2023-08-06T04:47:03;6.30;;;3.20;;
11498;SDS011;5806;48.748;9.278;2023-08-06T04:49:31;5.80;;;2.97;;
11498;SDS011;5806;48.748;9.278;2023-08-06T04:51:58;3.67;;;2.90;;
11498;SDS011;5806;48.748;9.278;2023-08-06T04:54:26;3.93;;;2.63;;
11498;SDS011;5806;48.748;9.278;2023-08-06T04:56:53;7.17;;;2.90;;
11498;SDS011;5806;48.748;9.278;2023-08-06T04:59:21;4.97;;;3.00;;
11498;SDS011;5806;48.748;9.278;2023-08-06T05:01:48;6.93;;;3.40;;
11498;SDS011;5806;48.748;9.278;2023-08-06T05:04:16;4.43;;;2.60;;
11498;SDS011;5806;48.748;9.278;2023-08-06T05:06:43;3.43;;;2.83;;
11498;SDS011;5806;48.748;9.278;2023-08-06T05:09:11;8.63;;;2.97;;
11498;SDS011;5806;48.748;9.278;2023-08-06T05:11:38;6.03;;;2.80;;
11498;SDS011;5806;48.748;9.278;2023-08-06T05:14:05;3.40;;;2.80;;
11498;SDS011;5806;48.748;9.278;2023-08-06T05:16:33;4.43;;;2.50;;
11498;SDS011;5806;48.748;9.278;2023-08-06T05:19:00;4.70;;;2.90;;
11498;SDS011;5806;48.748;9.278;2023-08-06T05:21:28;4.83;;;2.87;;
11498;SDS011;5806;48.748;9.278;2023-08-06T05:23:55;4.13;;;2.70;;
11498;SDS011;5806;48.748;9.278;2023-08-06T05:26:23;4.10;;;2.93;;
11498;SDS011;5806;48.748;9.278;2023-08-06T05:28:50;3.83;;;3.10;;
11498;SDS011;5806;48.748;9.278;2023-08-06T05:31:18;5.10;;;2.90;;
11498;SDS011;5806;48.748;9.278;2023-08-06T05:33:45;2.83;;;2.53;;
11498;SDS011;5806;48.748;9.278;2023-08-06T05:36:13;3.63;;;2.50;;
11498;SDS011;5806;48.748;9.278;2023-08-06T05:38:40;4.50;;;2.47;;
11498;SDS011;5806;48.748;9.278;2023-08-06T05:41:08;4.87;;;2.43;;
11498;SDS011;5806;48.748;9.278;2023-08-06T05:43:37;5.57;;;3.10;;
11498;SDS011;5806;48.748;9.278;2023-08-06T05:46:04;3.50;;;2.80;;
11498;SDS011;5806;48.748;9.278;2023-08-06T05:48:32;4.83;;;2.93;;
11498;SDS011;5806;48.748;9.278;2023-08-06T05:51:00;5.50;;;2.70;;
11498;SDS011;5806;48.748;9.278;2023-08-06T05:53:27;6.93;;;3.03;;
11498;SDS011;5806;48.748;9.278;2023-08-06T05:55:55;4.77;;;2.70;;
11498;SDS011;5806;48.748;9.278;2023-08-06T05:58:24;6.13;;;3.57;;
11498;SDS011;5806;48.748;9.278;2023-08-06T06:00:53;4.80;;;2.70;;
11498;SDS011;5806;48.748;9.278;2023-08-06T06:03:20;6.03;;;2.80;;
11498;SDS011;5806;48.748;9.278;2023-08-06T06:05:48;7.73;;;3.17;;
11498;SDS011;5806;48.748;9.278;2023-08-06T06:08:15;4.30;;;2.63;;
11498;SDS011;5806;48.748;9.278;2023-08-06T06:10:43;4.37;;;2.57;;
11498;SDS011;5806;48.748;9.278;2023-08-06T06:13:10;3.13;;;2.37;;
11498;SDS011;5806;48.748;9.278;2023-08-06T06:15:38;3.00;;;2.70;;
11498;SDS011;5806;48.748;9.278;2023-08-06T06:18:05;6.63;;;2.93;;
11498;SDS011;5806;48.748;9.278;2023-08-06T06:20:33;4.17;;;2.70;;
11498;SDS011;5806;48.748;9.278;2023-08-06T06:23:00;7.30;;;3.10;;
11498;SDS011;5806;48.748;9.278;2023-08-06T06:25:28;4.07;;;2.97;;
11498;SDS011;5806;48.748;9.278;2023-08-06T06:27:55;7.90;;;2.93;;
11498;SDS011;5806;48.748;9.278;2023-08-06T06:30:24;5.50;;;2.90;;
11498;SDS011;5806;48.748;9.278;2023-08-06T06:32:51;2.70;;;2.50;;
11498;SDS011;5806;48.748;9.278;2023-08-06T06:35:19;6.77;;;2.60;;
11498;SDS011;5806;48.748;9.278;2023-08-06T06:37:46;4.90;;;2.57;;
11498;SDS011;5806;48.748;9.278;2023-08-06T06:40:14;4.57;;;2.67;;
11498;SDS011;5806;48.748;9.278;2023-08-06T06:42:42;3.77;;;2.53;;
11498;SDS011;5806;48.748;9.278;2023-08-06T06:45:09;3.33;;;2.20;;
11498;SDS011;5806;48.748;9.278;2023-08-06T06:47:37;4.10;;;2.47;;
11498;SDS011;5806;48.748;9.278;2023-08-06T06:50:05;2.93;;;2.63;;
11498;SDS011;5806;48.748;9.278;2023-08-06T06:52:33;3.17;;;2.33;;
11498;SDS011;5806;48.748;9.278;2023-08-06T06:55:00;4.33;;;2.90;;
11498;SDS011;5806;48.748;9.278;2023-08-06T06:57:27;5.40;;;2.57;;
11498;SDS011;5806;48.748;9.278;2023-08-06T06:59:55;3.63;;;2.47;;
11498;SDS011;5806;48.748;9.278;2023-08-06T07:02:22;3.27;;;2.47;;
11498;SDS011;5806;48.748;9.278;2023-08-06T07:04:50;4.77;;;2.70;;
11498;SDS011;5806;48.748;9.278;2023-08-06T07:07:17;3.90;;;2.70;;
11498;SDS011;5806;48.748;9.278;2023-08-06T07:09:44;3.60;;;2.70;;
11498;SDS011;5806;48.748;9.278;2023-08-06T07:12:12;2.23;;;1.70;;
11498;SDS011;5806;48.748;9.278;2023-08-06T07:14:39;2.50;;;1.60;;
11498;SDS011;5806;48.748;9.278;2023-08-06T07:17:07;2.93;;;1.50;;
11498;SDS011;5806;48.748;9.278;2023-08-06T07:19:34;2.33;;;1.43;;
11498;SDS011;5806;48.748;9.278;2023-08-06T07:22:01;2.37;;;1.23;;
11498;SDS011;5806;48.748;9.278;2023-08-06T07:24:29;1.20;;;1.00;;
11498;SDS011;5806;48.748;9.278;2023-08-06T07:26:56;1.73;;;1.20;;
11498;SDS011;5806;48.748;9.278;2023-08-06T07:29:24;1.67;;;1.57;;
11498;SDS011;5806;48.748;9.278;2023-08-06T07:31:51;2.13;;;1.50;;
11498;SDS011;5806;48.748;9.278;2023-08-06T07:34:18;1.87;;;1.70;;
11498;SDS011;5806;48.748;9.278;2023-08-06T07:36:46;3.60;;;1.50;;
11498;SDS011;5806;48.748;9.278;2023-08-06T07:39:14;2.43;;;1.40;;
11498;SDS011;5806;48.748;9.278;2023-08-06T07:41:42;2.40;;;1.50;;
11498;SDS011;5806;48.748;9.278;2023-08-06T07:44:11;2.60;;;1.77;;
11498;SDS011;5806;48.748;9.278;2023-08-06T07:46:38;2.43;;;1.40;;
11498;SDS011;5806;48.748;9.278;2023-08-06T07:49:06;1.47;;;1.37;;
11498;SDS011;5806;48.748;9.278;2023-08-06T07:51:36;2.30;;;1.30;;
11498;SDS011;5806;48.748;9.278;2023-08-06T07:54:04;2.13;;;1.30;;
11498;SDS011;5806;48.748;9.278;2023-08-06T07:56:32;3.70;;;1.20;;
11498;SDS011;5806;48.748;9.278;2023-08-06T07:59:01;1.57;;;1.40;;
11498;SDS011;5806;48.748;9.278;2023-08-06T08:01:28;1.30;;;1.13;;
11498;SDS011;5806;48.748;9.278;2023-08-06T08:03:56;2.70;;;1.57;;
11498;SDS011;5806;48.748;9.278;2023-08-06T08:06:23;1.30;;;1.10;;
11498;SDS011;5806;48.748;9.278;2023-08-06T08:08:51;1.50;;;1.30;;
11498;SDS011;5806;48.748;9.278;2023-08-06T08:11:20;1.50;;;1.20;;
11498;SDS011;5806;48.748;9.278;2023-08-06T08:13:47;1.63;;;1.30;;
11498;SDS011;5806;48.748;9.278;2023-08-06T08:16:15;1.50;;;1.40;;
11498;SDS011;5806;48.748;9.278;2023-08-06T08:18:42;2.07;;;1.47;;
11498;SDS011;5806;48.748;9.278;2023-08-06T08:21:10;3.03;;;2.13;;
11498;SDS011;5806;48.748;9.278;2023-08-06T08:23:37;2.10;;;1.87;;
11498;SDS011;5806;48.748;9.278;2023-08-06T08:26:06;2.03;;;1.70;;
11498;SDS011;5806;48.748;9.278;2023-08-06T08:28:34;1.90;;;1.70;;
11498;SDS011;5806;48.748;9.278;2023-08-06T08:31:01;2.67;;;1.50;;
11498;SDS011;5806;48.748;9.278;2023-08-06T08:33:29;2.87;;;1.60;;
11498;SDS011;5806;48.748;9.278;2023-08-06T08:35:56;1.73;;;1.43;;
11498;SDS011;5806;48.748;9.278;2023-08-06T08:38:24;1.60;;;1.50;;
11498;SDS011;5806;48.748;9.278;2023-08-06T08:40:51;1.47;;;1.37;;
11498;SDS011;5806;48.748;9.278;2023-08-06T08:43:20;2.70;;;1.70;;
11498;SDS011;5806;48.748;9.278;2023-08-06T08:45:51;2.57;;;1.40;;
11498;SDS011;5806;48.748;9.278;2023-08-06T08:48:24;1.90;;;1.50;;
11498;SDS011;5806;48.748;9.278;2023-08-06T08:50:54;1.53;;;1.40;;
11498;SDS011;5806;48.748;9.278;2023-08-06T08:53:22;1.50;;;1.27;;
11498;SDS011;5806;48.748;9.278;2023-08-06T08:55:51;1.77;;;1.40;;
11498;SDS011;5806;48.748;9.278;2023-08-06T08:58:20;1.53;;;1.40;;
11498;SDS011;5806;48.748;9.278;2023-08-06T09:00:48;1.83;;;1.60;;
11498;SDS011;5806;48.748;9.278;2023-08-06T09:03:16;2.10;;;1.43;;
11498;SDS011;5806;48.748;9.278;2023-08-06T09:05:44;1.47;;;1.37;;
11498;SDS011;5806;48.748;9.278;2023-08-06T09:08:15;2.17;;;1.23;;
11498;SDS011;5806;48.748;9.278;2023-08-06T09:10:44;4.50;;;1.60;;
11498;SDS011;5806;48.748;9.278;2023-08-06T09:13:15;2.03;;;1.40;;
11498;SDS011;5806;48.748;9.278;2023-08-06T09:15:43;1.53;;;1.43;;
11498;SDS011;5806;48.748;9.278;2023-08-06T09:18:11;2.90;;;1.63;;
11498;SDS011;5806;48.748;9.278;2023-08-06T09:20:39;1.97;;;1.73;;
11498;SDS011;5806;48.748;9.278;2023-08-06T09:23:08;7.23;;;2.40;;
11498;SDS011;5806;48.748;9.278;2023-08-06T09:25:38;3.00;;;2.30;;
11498;SDS011;5806;48.748;9.278;2023-08-06T09:28:06;2.93;;;2.50;;
11498;SDS011;5806;48.748;9.278;2023-08-06T09:30:39;2.50;;;2.30;;
11498;SDS011;5806;48.748;9.278;2023-08-06T09:33:08;3.03;;;2.73;;
11498;SDS011;5806;48.748;9.278;2023-08-06T09:35:40;2.87;;;2.67;;
11498;SDS011;5806;48.748;9.278;2023-08-06T09:38:08;3.53;;;3.23;;
11498;SDS011;5806;48.748;9.278;2023-08-06T09:40:37;4.23;;;3.83;;
11498;SDS011;5806;48.748;9.278;2023-08-06T09:43:05;4.40;;;4.00;;
11498;SDS011;5806;48.748;9.278;2023-08-06T09:45:33;5.20;;;4.40;;
11498;SDS011;5806;48.748;9.278;2023-08-06T09:48:07;5.03;;;4.43;;
11498;SDS011;5806;48.748;9.278;2023-08-06T09:50:36;5.63;;;5.13;;
11498;SDS011;5806;48.748;9.278;2023-08-06T09:53:06;7.67;;;5.83;;
11498;SDS011;5806;48.748;9.278;2023-08-06T09:55:34;6.87;;;5.80;;
11498;SDS011;5806;48.748;9.278;2023-08-06T09:58:01;6.50;;;5.90;;
11498;SDS011;5806;48.748;9.278;2023-08-06T10:00:31;6.70;;;6.10;;
11498;SDS011;5806;48.748;9.278;2023-08-06T10:03:00;6.63;;;6.03;;
11498;SDS011;5806;48.748;9.278;2023-08-06T10:05:28;9.30;;;7.30;;
11498;SDS011;5806;48.748;9.278;2023-08-06T10:07:58;11.03;;;7.53;;
11498;SDS011;5806;48.748;9.278;2023-08-06T10:10:28;6.90;;;6.20;;
11498;SDS011;5806;48.748;9.278;2023-08-06T10:12:57;8.47;;;7.63;;
11498;SDS011;5806;48.748;9.278;2023-08-06T10:15:26;8.23;;;7.43;;
11498;SDS011;5806;48.748;9.278;2023-08-06T10:17:56;10.97;;;8.53;;
11498;SDS011;5806;48.748;9.278;2023-08-06T10:20:26;9.37;;;8.50;;
11498;SDS011;5806;48.748;9.278;2023-08-06T10:23:00;13.43;;;9.00;;
11498;SDS011;5806;48.748;9.278;2023-08-06T10:25:33;11.73;;;8.23;;
11498;SDS011;5806;48.748;9.278;2023-08-06T10:28:13;12.40;;;6.63;;
11498;SDS011;5806;48.748;9.278;2023-08-06T10:30:42;11.47;;;3.43;;
11498;SDS011;5806;48.748;9.278;2023-08-06T10:33:11;3.83;;;2.20;;
11498;SDS011;5806;48.748;9.278;2023-08-06T10:35:46;4.83;;;2.40;;
11498;SDS011;5806;48.748;9.278;2023-08-06T10:38:20;2.33;;;1.30;;
11498;SDS011;5806;48.748;9.278;2023-08-06T10:43:31;0.60;;;0.40;;
11498;SDS011;5806;48.748;9.278;2023-08-06T10:46:00;4.10;;;1.10;;
11498;SDS011;5806;48.748;9.278;2023-08-06T10:51:03;1.03;;;0.60;;
11498;SDS011;5806;48.748;9.278;2023-08-06T10:53:32;0.83;;;0.60;;
11498;SDS011;5806;48.748;9.278;2023-08-06T10:56:00;1.23;;;0.83;;
11498;SDS011;5806;48.748;9.278;2023-08-06T10:58:32;1.37;;;0.80;;
11498;SDS011;5806;48.748;9.278;2023-08-06T11:00:59;1.20;;;1.10;;
11498;SDS011;5806;48.748;9.278;2023-08-06T11:03:27;1.10;;;0.93;;
11498;SDS011;5806;48.748;9.278;2023-08-06T11:05:55;1.10;;;1.00;;
11498;SDS011;5806;48.748;9.278;2023-08-06T11:08:26;2.00;;;1.10;;
11498;SDS011;5806;48.748;9.278;2023-08-06T11:10:53;1.83;;;1.20;;
11498;SDS011;5806;48.748;9.278;2023-08-06T11:13:21;1.97;;;1.10;;
11498;SDS011;5806;48.748;9.278;2023-08-06T11:15:50;2.60;;;1.10;;
11498;SDS011;5806;48.748;9.278;2023-08-06T11:18:19;2.90;;;1.33;;
11498;SDS011;5806;48.748;9.278;2023-08-06T11:20:47;3.20;;;1.63;;
11498;SDS011;5806;48.748;9.278;2023-08-06T11:23:14;2.70;;;2.00;;
11498;SDS011;5806;48.748;9.278;2023-08-06T11:25:44;2.30;;;1.57;;
11498;SDS011;5806;48.748;9.278;2023-08-06T11:28:33;2.53;;;1.70;;
11498;SDS011;5806;48.748;9.278;2023-08-06T11:31:00;3.57;;;2.37;;
11498;SDS011;5806;48.748;9.278;2023-08-06T11:33:29;5.10;;;2.53;;
11498;SDS011;5806;48.748;9.278;2023-08-06T11:35:58;2.60;;;1.80;;
11498;SDS011;5806;48.748;9.278;2023-08-06T11:38:32;2.80;;;2.17;;
11498;SDS011;5806;48.748;9.278;2023-08-06T11:40:55;4.37;;;2.00;;
11498;SDS011;5806;48.748;9.278;2023-08-06T11:43:23;4.13;;;2.43;;
11498;SDS011;5806;48.748;9.278;2023-08-06T11:45:50;4.30;;;2.00;;
11498;SDS011;5806;48.748;9.278;2023-08-06T11:48:20;2.90;;;2.10;;
11498;SDS011;5806;48.748;9.278;2023-08-06T11:50:47;9.17;;;2.40;;
11498;SDS011;5806;48.748;9.278;2023-08-06T11:53:15;3.40;;;2.30;;
11498;SDS011;5806;48.748;9.278;2023-08-06T11:55:42;3.77;;;2.50;;
11498;SDS011;5806;48.748;9.278;2023-08-06T11:58:10;5.53;;;3.00;;
11498;SDS011;5806;48.748;9.278;2023-08-06T12:00:38;6.13;;;3.20;;
11498;SDS011;5806;48.748;9.278;2023-08-06T12:03:05;6.23;;;3.43;;
11498;SDS011;5806;48.748;9.278;2023-08-06T12:05:33;7.23;;;3.93;;
11498;SDS011;5806;48.748;9.278;2023-08-06T12:08:01;7.87;;;4.37;;
11498;SDS011;5806;48.748;9.278;2023-08-06T12:10:30;9.30;;;5.13;;
11498;SDS011;5806;48.748;9.278;2023-08-06T12:12:59;8.80;;;3.30;;
11498;SDS011;5806;48.748;9.278;2023-08-06T12:15:28;6.07;;;3.07;;
11498;SDS011;5806;48.748;9.278;2023-08-06T12:17:55;5.87;;;3.33;;
11498;SDS011;5806;48.748;9.278;2023-08-06T12:20:23;3.97;;;2.73;;
11498;SDS011;5806;48.748;9.278;2023-08-06T12:22:50;6.53;;;3.07;;
11498;SDS011;5806;48.748;9.278;2023-08-06T12:25:18;6.73;;;2.90;;
11498;SDS011;5806;48.748;9.278;2023-08-06T12:27:46;4.07;;;2.57;;
11498;SDS011;5806;48.748;9.278;2023-08-06T12:30:13;7.83;;;2.70;;
11498;SDS011;5806;48.748;9.278;2023-08-06T12:32:41;4.00;;;2.13;;
11498;SDS011;5806;48.748;9.278;2023-08-06T12:35:08;4.13;;;2.57;;
11498;SDS011;5806;48.748;9.278;2023-08-06T12:37:36;5.07;;;2.60;;
11498;SDS011;5806;48.748;9.278;2023-08-06T12:40:05;4.17;;;2.20;;
11498;SDS011;5806;48.748;9.278;2023-08-06T12:42:33;4.33;;;2.33;;
11498;SDS011;5806;48.748;9.278;2023-08-06T12:45:00;6.03;;;3.27;;
11498;SDS011;5806;48.748;9.278;2023-08-06T12:47:28;4.07;;;2.90;;
11498;SDS011;5806;48.748;9.278;2023-08-06T12:49:56;5.57;;;2.63;;
11498;SDS011;5806;48.748;9.278;2023-08-06T12:52:23;6.53;;;3.00;;
11498;SDS011;5806;48.748;9.278;2023-08-06T12:54:50;5.63;;;2.80;;
11498;SDS011;5806;48.748;9.278;2023-08-06T12:57:18;4.17;;;1.77;;
11498;SDS011;5806;48.748;9.278;2023-08-06T12:59:45;3.97;;;2.13;;
11498;SDS011;5806;48.748;9.278;2023-08-06T13:02:13;4.93;;;2.73;;
11498;SDS011;5806;48.748;9.278;2023-08-06T13:04:41;4.30;;;2.20;;
11498;SDS011;5806;48.748;9.278;2023-08-06T13:07:08;4.00;;;2.00;;
11498;SDS011;5806;48.748;9.278;2023-08-06T13:09:36;3.30;;;2.27;;
11498;SDS011;5806;48.748;9.278;2023-08-06T13:12:03;6.33;;;2.87;;
11498;SDS011;5806;48.748;9.278;2023-08-06T13:14:31;5.77;;;4.17;;
11498;SDS011;5806;48.748;9.278;2023-08-06T13:16:59;4.93;;;2.77;;
11498;SDS011;5806;48.748;9.278;2023-08-06T13:19:27;5.30;;;2.27;;
11498;SDS011;5806;48.748;9.278;2023-08-06T13:22:01;4.17;;;2.20;;
11498;SDS011;5806;48.748;9.278;2023-08-06T13:24:32;2.97;;;2.50;;
11498;SDS011;5806;48.748;9.278;2023-08-06T13:27:00;5.13;;;2.80;;
11498;SDS011;5806;48.748;9.278;2023-08-06T13:29:28;4.13;;;2.70;;
11498;SDS011;5806;48.748;9.278;2023-08-06T13:31:55;7.50;;;4.27;;
11498;SDS011;5806;48.748;9.278;2023-08-06T13:34:23;5.80;;;2.80;;
11498;SDS011;5806;48.748;9.278;2023-08-06T13:36:50;11.97;;;6.43;;
11498;SDS011;5806;48.748;9.278;2023-08-06T13:39:18;6.37;;;3.93;;
11498;SDS011;5806;48.748;9.278;2023-08-06T13:41:45;10.73;;;6.47;;
11498;SDS011;5806;48.748;9.278;2023-08-06T13:44:13;6.27;;;3.60;;
11498;SDS011;5806;48.748;9.278;2023-08-06T13:46:40;3.13;;;2.40;;
11498;SDS011;5806;48.748;9.278;2023-08-06T13:49:08;3.87;;;2.70;;
11498;SDS011;5806;48.748;9.278;2023-08-06T13:51:36;5.27;;;3.00;;
11498;SDS011;5806;48.748;9.278;2023-08-06T13:54:04;5.43;;;3.10;;
11498;SDS011;5806;48.748;9.278;2023-08-06T13:56:32;3.67;;;2.77;;
11498;SDS011;5806;48.748;9.278;2023-08-06T13:58:59;4.83;;;3.40;;
11498;SDS011;5806;48.748;9.278;2023-08-06T14:01:27;5.27;;;3.07;;
11498;SDS011;5806;48.748;9.278;2023-08-06T14:03:54;7.80;;;3.33;;
11498;SDS011;5806;48.748;9.278;2023-08-06T14:06:22;9.53;;;3.97;;
11498;SDS011;5806;48.748;9.278;2023-08-06T14:08:49;7.03;;;4.20;;
11498;SDS011;5806;48.748;9.278;2023-08-06T14:11:16;10.53;;;5.67;;
11498;SDS011;5806;48.748;9.278;2023-08-06T14:13:44;15.10;;;7.90;;
11498;SDS011;5806;48.748;9.278;2023-08-06T14:16:11;11.83;;;6.97;;
11498;SDS011;5806;48.748;9.278;2023-08-06T14:18:39;8.40;;;4.77;;
11498;SDS011;5806;48.748;9.278;2023-08-06T14:21:06;5.40;;;4.43;;
11498;SDS011;5806;48.748;9.278;2023-08-06T14:23:34;10.27;;;3.93;;
11498;SDS011;5806;48.748;9.278;2023-08-06T14:26:01;6.30;;;3.53;;
11498;SDS011;5806;48.748;9.278;2023-08-06T14:28:29;5.37;;;3.97;;
11498;SDS011;5806;48.748;9.278;2023-08-06T14:30:56;5.83;;;3.93;;
11498;SDS011;5806;48.748;9.278;2023-08-06T14:33:24;3.57;;;3.10;;
11498;SDS011;5806;48.748;9.278;2023-08-06T14:35:51;6.33;;;4.23;;
11498;SDS011;5806;48.748;9.278;2023-08-06T14:38:18;4.87;;;4.17;;
11498;SDS011;5806;48.748;9.278;2023-08-06T14:40:46;7.83;;;5.10;;
11498;SDS011;5806;48.748;9.278;2023-08-06T14:43:13;12.60;;;4.20;;
11498;SDS011;5806;48.748;9.278;2023-08-06T14:45:41;9.80;;;3.70;;
11498;SDS011;5806;48.748;9.278;2023-08-06T14:48:08;6.17;;;2.47;;
11498;SDS011;5806;48.748;9.278;2023-08-06T14:50:36;2.70;;;2.13;;
11498;SDS011;5806;48.748;9.278;2023-08-06T14:53:05;4.50;;;2.27;;
11498;SDS011;5806;48.748;9.278;2023-08-06T14:55:33;6.50;;;2.07;;
11498;SDS011;5806;48.748;9.278;2023-08-06T14:58:01;3.67;;;2.20;;
11498;SDS011;5806;48.748;9.278;2023-08-06T15:00:29;5.10;;;2.37;;
11498;SDS011;5806;48.748;9.278;2023-08-06T15:02:57;4.57;;;1.77;;
11498;SDS011;5806;48.748;9.278;2023-08-06T15:05:25;6.67;;;2.60;;
11498;SDS011;5806;48.748;9.278;2023-08-06T15:07:52;10.13;;;2.30;;
11498;SDS011;5806;48.748;9.278;2023-08-06T15:10:19;8.17;;;2.63;;
11498;SDS011;5806;48.748;9.278;2023-08-06T15:12:47;7.37;;;2.50;;